Time;durP1;ratioP1;P1;durP2;ratioP2;P2;SDS_P1;SDS_P2;PMS_P1;PMS_P2;Temp;Humidity;BMP_temperature;BMP_pressure;BME280_temperature;BME280_humidity;BME280_pressure;Samples;Min_cycle;Max_cycle;Signal;HPM_P1;HPM_P2
2023/11/29 00:02:59;;;;;;;10.32;6.88;;;;;;;;;;10410015;28;20522;-53
2023/11/29 00:08:00;;;;;;;13.88;7.03;;;;;;;;;;10409271;28;20040;-52
2023/11/29 00:13:01;;;;;;;11.50;7.10;;;;;;;;;;10409724;28;20025;-52
2023/11/29 00:18:01;;;;;;;9.00;6.78;;;;;;;;;;10409377;28;20021;-52
2023/11/29 00:23:02;;;;;;;8.48;6.72;;;;;;;;;;10408289;28;20024;-51
2023/11/29 00:28:02;;;;;;;10.65;6.30;;;;;;;;;;10409104;28;20087;-55
2023/11/29 00:33:03;;;;;;;11.40;6.75;;;;;;;;;;10408643;28;20033;-51
2023/11/29 00:38:03;;;;;;;9.90;6.70;;;;;;;;;;10408551;28;20030;-52
2023/11/29 00:43:04;;;;;;;8.32;6.50;;;;;;;;;;10408401;28;20036;-52
2023/11/29 00:48:05;;;;;;;8.35;6.07;;;;;;;;;;10408621;28;20251;-52
2023/11/29 00:53:06;;;;;;;7.97;6.20;;;;;;;;;;10408158;28;20052;-52
2023/11/29 00:58:06;;;;;;;10.02;6.07;;;;;;;;;;10407596;28;20098;-52
2023/11/29 01:03:07;;;;;;;10.52;6.30;;;;;;;;;;10406223;28;20095;-52
2023/11/29 01:08:07;;;;;;;10.85;6.30;;;;;;;;;;10407580;28;20022;-50
2023/11/29 01:13:08;;;;;;;8.65;5.72;;;;;;;;;;10406132;28;20029;-51
2023/11/29 01:18:08;;;;;;;11.00;5.80;;;;;;;;;;10406918;28;20494;-52
2023/11/29 01:23:09;;;;;;;6.45;5.60;;;;;;;;;;10406646;28;20037;-51
2023/11/29 01:28:10;;;;;;;7.88;5.90;;;;;;;;;;10405117;28;20025;-52
2023/11/29 01:33:11;;;;;;;10.32;6.70;;;;;;;;;;10406332;28;20045;-51
2023/11/29 01:38:11;;;;;;;8.43;6.13;;;;;;;;;;10406246;28;20044;-51
2023/11/29 01:43:12;;;;;;;7.93;5.40;;;;;;;;;;10405884;28;20101;-52
2023/11/29 01:48:13;;;;;;;8.95;5.57;;;;;;;;;;10405923;28;20029;-48
2023/11/29 01:53:13;;;;;;;7.88;5.88;;;;;;;;;;10401691;28;20041;-52
2023/11/29 01:58:14;;;;;;;6.88;5.53;;;;;;;;;;10420678;28;20018;-56
2023/11/29 02:03:17;;;;;;;7.28;5.53;;;;;;;;;;10405854;28;20018;-51
2023/11/29 02:08:18;;;;;;;8.27;5.75;;;;;;;;;;10400344;28;20035;-52
2023/11/29 02:13:18;;;;;;;7.78;5.22;;;;;;;;;;10403097;28;20064;-51
2023/11/29 02:18:19;;;;;;;10.43;5.80;;;;;;;;;;10389973;28;20492;-52
2023/11/29 02:23:40;;;;;;;7.80;5.50;;;;;;;;;;10399852;28;20032;-52
2023/11/29 02:28:41;;;;;;;8.63;5.75;;;;;;;;;;10397033;28;20026;-51
2023/11/29 02:33:42;;;;;;;9.18;5.90;;;;;;;;;;10394555;28;20045;-52
2023/11/29 02:38:42;;;;;;;7.20;5.18;;;;;;;;;;10403683;28;20025;-56
2023/11/29 02:43:43;;;;;;;7.00;5.25;;;;;;;;;;10404763;28;20245;-55
2023/11/29 02:48:43;;;;;;;7.22;5.57;;;;;;;;;;10405292;28;20369;-52
2023/11/29 02:53:44;;;;;;;7.72;5.07;;;;;;;;;;10402020;28;20061;-52
2023/11/29 02:58:45;;;;;;;7.18;5.32;;;;;;;;;;10404354;28;20106;-51
2023/11/29 03:03:45;;;;;;;6.68;4.78;;;;;;;;;;10404753;28;20029;-52
2023/11/29 03:08:46;;;;;;;6.20;5.13;;;;;;;;;;10409020;28;20037;-52
2023/11/29 03:13:46;;;;;;;6.68;5.47;;;;;;;;;;10411045;28;20018;-49
2023/11/29 03:18:47;;;;;;;5.75;4.90;;;;;;;;;;10410993;28;20079;-52
2023/11/29 03:23:48;;;;;;;5.55;4.85;;;;;;;;;;10399530;28;20476;-51
2023/11/29 03:28:48;;;;;;;6.95;5.10;;;;;;;;;;10409797;28;20065;-51
2023/11/29 03:33:49;;;;;;;8.35;4.63;;;;;;;;;;10411061;28;20030;-51
2023/11/29 03:38:49;;;;;;;7.93;4.95;;;;;;;;;;10410643;28;20041;-52
2023/11/29 03:43:50;;;;;;;6.97;4.95;;;;;;;;;;10410066;28;20025;-51
2023/11/29 03:48:51;;;;;;;6.97;4.78;;;;;;;;;;10411680;28;20041;-53
2023/11/29 03:53:51;;;;;;;6.32;4.93;;;;;;;;;;10410104;28;20056;-52
2023/11/29 03:58:52;;;;;;;5.47;4.68;;;;;;;;;;10410126;28;20083;-52
2023/11/29 04:03:52;;;;;;;6.60;4.57;;;;;;;;;;10409396;28;20056;-53
2023/11/29 04:08:54;;;;;;;4.60;4.20;;;;;;;;;;10409947;28;20049;-51
2023/11/29 04:13:54;;;;;;;7.20;4.80;;;;;;;;;;10409583;28;20117;-51
2023/11/29 04:18:55;;;;;;;7.65;4.43;;;;;;;;;;10408473;28;20497;-52
2023/11/29 04:23:56;;;;;;;5.57;4.88;;;;;;;;;;10401123;28;20531;-53
2023/11/29 04:28:58;;;;;;;5.45;4.70;;;;;;;;;;10402370;28;20477;-53
2023/11/29 04:33:59;;;;;;;6.78;4.85;;;;;;;;;;10407978;28;20279;-53
2023/11/29 04:39:00;;;;;;;4.90;4.40;;;;;;;;;;10408393;28;20022;-52
2023/11/29 04:44:00;;;;;;;5.90;4.70;;;;;;;;;;10408323;28;20392;-55
2023/11/29 04:49:01;;;;;;;6.68;4.70;;;;;;;;;;10408269;28;20369;-52
2023/11/29 04:54:02;;;;;;;5.45;4.72;;;;;;;;;;10407066;28;20516;-52
2023/11/29 04:59:03;;;;;;;6.50;4.65;;;;;;;;;;10407931;28;20021;-51
2023/11/29 05:04:03;;;;;;;4.97;4.00;;;;;;;;;;10407110;28;20064;-51
2023/11/29 05:09:06;;;;;;;9.02;4.45;;;;;;;;;;10407529;28;20022;-52
2023/11/29 05:14:06;;;;;;;6.95;4.72;;;;;;;;;;10406975;28;20116;-51
2023/11/29 05:19:07;;;;;;;10.55;4.10;;;;;;;;;;10407305;28;20025;-50
2023/11/29 05:24:07;;;;;;;5.03;4.38;;;;;;;;;;10397519;28;20484;-49
2023/11/29 05:29:08;;;;;;;5.28;4.10;;;;;;;;;;10402706;28;20460;-51
2023/11/29 05:34:08;;;;;;;4.93;4.22;;;;;;;;;;10406182;28;20515;-51
2023/11/29 05:39:10;;;;;;;5.40;4.47;;;;;;;;;;10406529;28;20024;-52
2023/11/29 05:44:10;;;;;;;5.65;3.88;;;;;;;;;;10405689;28;20025;-52
2023/11/29 05:49:11;;;;;;;5.65;4.00;;;;;;;;;;10405987;28;20068;-51
2023/11/29 05:54:11;;;;;;;4.95;3.72;;;;;;;;;;10404597;28;20050;-55
2023/11/29 05:59:12;;;;;;;5.50;3.75;;;;;;;;;;10405160;28;20041;-52
2023/11/29 06:04:13;;;;;;;5.50;3.80;;;;;;;;;;10403856;28;20444;-51
2023/11/29 06:09:14;;;;;;;3.97;3.40;;;;;;;;;;10404426;28;20033;-52
2023/11/29 06:14:15;;;;;;;4.57;3.78;;;;;;;;;;10404582;28;20119;-51
2023/11/29 06:19:15;;;;;;;7.72;4.05;;;;;;;;;;10404807;28;20036;-51
2023/11/29 06:24:16;;;;;;;9.95;4.25;;;;;;;;;;10400395;28;20032;-47
2023/11/29 06:29:17;;;;;;;12.48;5.28;;;;;;;;;;10401060;28;20675;-50
2023/11/29 06:34:18;;;;;;;8.35;5.10;;;;;;;;;;10400886;28;20032;-53
2023/11/29 06:39:21;;;;;;;12.82;5.47;;;;;;;;;;10401291;28;20041;-51
2023/11/29 06:44:21;;;;;;;7.60;5.30;;;;;;;;;;10403847;28;20083;-48
2023/11/29 06:49:22;;;;;;;9.30;5.65;;;;;;;;;;10406055;28;20120;-56
2023/11/29 06:54:23;;;;;;;8.27;5.65;;;;;;;;;;10405849;28;20088;-49
2023/11/29 06:59:24;;;;;;;13.57;5.80;;;;;;;;;;10410314;28;20030;-50
2023/11/29 07:04:27;;;;;;;12.75;5.45;;;;;;;;;;10408088;28;20022;-51
2023/11/29 07:09:28;;;;;;;15.77;5.78;;;;;;;;;;10402124;28;20075;-49
2023/11/29 07:14:28;;;;;;;13.32;5.28;;;;;;;;;;10411546;28;20029;-52
2023/11/29 07:19:29;;;;;;;14.88;5.65;;;;;;;;;;10399437;28;20033;-56
2023/11/29 07:24:29;;;;;;;12.35;5.32;;;;;;;;;;10407929;28;20033;-51
2023/11/29 07:29:30;;;;;;;13.85;5.25;;;;;;;;;;10410412;28;20026;-53
2023/11/29 07:34:31;;;;;;;12.73;5.25;;;;;;;;;;10410142;28;20060;-50
2023/11/29 07:39:31;;;;;;;14.82;5.03;;;;;;;;;;10411924;28;20488;-51
2023/11/29 07:44:32;;;;;;;13.73;5.50;;;;;;;;;;10409222;28;20037;-51
2023/11/29 07:49:33;;;;;;;9.02;5.10;;;;;;;;;;10410125;28;20041;-49
2023/11/29 07:54:33;;;;;;;8.82;4.78;;;;;;;;;;10408226;28;20059;-51
2023/11/29 07:59:34;;;;;;;11.45;4.82;;;;;;;;;;10410002;28;20021;-51
2023/11/29 08:04:34;;;;;;;8.32;4.75;;;;;;;;;;10410025;28;20029;-51
2023/11/29 08:09:35;;;;;;;14.63;4.80;;;;;;;;;;10409527;28;20038;-50
2023/11/29 08:14:35;;;;;;;10.68;5.45;;;;;;;;;;10408862;28;20025;-50
2023/11/29 08:19:36;;;;;;;9.00;4.50;;;;;;;;;;10409181;28;20144;-54
2023/11/29 08:24:37;;;;;;;13.40;4.72;;;;;;;;;;10397570;28;20022;-54
2023/11/29 08:29:39;;;;;;;10.82;4.65;;;;;;;;;;10395074;28;20184;-53
2023/11/29 08:34:47;;;;;;;5.47;4.28;;;;;;;;;;10390144;28;20033;-52
2023/11/29 08:39:59;;;;;;;9.85;4.93;;;;;;;;;;10388170;28;20107;-53
2023/11/29 08:45:01;;;;;;;10.30;4.43;;;;;;;;;;10388880;28;20431;-56
2023/11/29 08:50:02;;;;;;;10.98;4.20;;;;;;;;;;10391173;28;20037;-52
2023/11/29 08:55:04;;;;;;;9.07;4.47;;;;;;;;;;10394416;28;20045;-58
2023/11/29 09:00:06;;;;;;;6.70;4.70;;;;;;;;;;10393998;28;20028;-55
2023/11/29 09:05:08;;;;;;;10.75;4.88;;;;;;;;;;10390957;28;20042;-51
2023/11/29 09:10:09;;;;;;;6.72;4.50;;;;;;;;;;10392738;28;20033;-52
2023/11/29 09:15:10;;;;;;;6.80;4.40;;;;;;;;;;10393521;28;20560;-51
2023/11/29 09:20:11;;;;;;;7.03;4.15;;;;;;;;;;10396205;28;20025;-51
2023/11/29 09:25:12;;;;;;;6.25;4.05;;;;;;;;;;10406675;28;20022;-58
2023/11/29 09:30:13;;;;;;;6.43;4.18;;;;;;;;;;10383603;28;20383;-54
2023/11/29 09:35:13;;;;;;;6.18;4.40;;;;;;;;;;10384788;28;20047;-51
2023/11/29 09:40:16;;;;;;;9.35;4.45;;;;;;;;;;10384142;28;20112;-51
2023/11/29 09:45:23;;;;;;;7.95;4.55;;;;;;;;;;10384956;28;20037;-49
2023/11/29 09:50:26;;;;;;;9.77;4.22;;;;;;;;;;10383961;28;20069;-51
2023/11/29 09:55:27;;;;;;;9.23;4.47;;;;;;;;;;10382117;28;20061;-52
2023/11/29 10:00:28;;;;;;;5.75;3.92;;;;;;;;;;10384699;28;20415;-51
2023/11/29 10:05:29;;;;;;;6.55;3.83;;;;;;;;;;10385501;28;20038;-51
2023/11/29 10:10:36;;;;;;;9.05;3.83;;;;;;;;;;10383883;28;20104;-53
2023/11/29 10:15:37;;;;;;;5.40;3.83;;;;;;;;;;10385619;28;20029;-51
2023/11/29 10:20:38;;;;;;;8.00;4.40;;;;;;;;;;10386997;28;20052;-51
2023/11/29 10:25:39;;;;;;;6.57;3.92;;;;;;;;;;10384852;28;20018;-49
2023/11/29 10:30:39;;;;;;;6.63;3.72;;;;;;;;;;10386207;28;20164;-52
2023/11/29 10:35:41;;;;;;;6.72;3.60;;;;;;;;;;10386485;28;20029;-51
2023/11/29 10:40:43;;;;;;;8.85;4.20;;;;;;;;;;10384619;28;20401;-52
2023/11/29 10:45:47;;;;;;;5.20;3.70;;;;;;;;;;10381443;28;20030;-51
2023/11/29 10:50:48;;;;;;;6.18;3.60;;;;;;;;;;10384702;28;20545;-49
2023/11/29 10:55:50;;;;;;;4.53;3.95;;;;;;;;;;10381293;28;20060;-54
2023/11/29 11:00:51;;;;;;;8.00;3.50;;;;;;;;;;10382159;28;20044;-54
2023/11/29 11:05:51;;;;;;;8.05;3.40;;;;;;;;;;10379367;28;20029;-53
2023/11/29 11:10:52;;;;;;;7.75;3.67;;;;;;;;;;10397312;28;20029;-51
2023/11/29 11:15:55;;;;;;;8.15;3.50;;;;;;;;;;10395282;28;20030;-52
2023/11/29 11:20:56;;;;;;;3.80;3.28;;;;;;;;;;10386048;28;20042;-55
2023/11/29 11:26:07;;;;;;;5.40;3.63;;;;;;;;;;10381308;28;20022;-51
2023/11/29 11:31:09;;;;;;;4.72;3.05;;;;;;;;;;10385001;28;20348;-50
2023/11/29 11:36:10;;;;;;;5.72;3.40;;;;;;;;;;10389514;28;20523;-53
2023/11/29 11:41:11;;;;;;;6.25;3.70;;;;;;;;;;10386916;28;20107;-54
2023/11/29 11:46:11;;;;;;;5.28;3.40;;;;;;;;;;10388928;28;20030;-50
2023/11/29 11:56:21;;;;;;;4.00;3.00;;;;;;;;;;10306106;28;20141;-62
2023/11/29 12:01:22;;;;;;;3.47;2.95;;;;;;;;;;10324022;28;20042;-62
2023/11/29 12:06:23;;;;;;;6.40;2.92;;;;;;;;;;10346641;28;20492;-62
2023/11/29 12:11:28;;;;;;;2.95;2.50;;;;;;;;;;10347860;28;20499;-63
2023/11/29 12:16:28;;;;;;;6.30;3.08;;;;;;;;;;10345905;28;20069;-63
2023/11/29 12:21:30;;;;;;;4.00;2.55;;;;;;;;;;10346445;28;20017;-63
2023/11/29 12:26:31;;;;;;;3.70;2.65;;;;;;;;;;10346106;28;20037;-63
2023/11/29 12:31:37;;;;;;;3.80;2.90;;;;;;;;;;10344671;28;20084;-62
2023/11/29 12:36:38;;;;;;;4.25;2.85;;;;;;;;;;10353798;28;20072;-63
2023/11/29 12:41:39;;;;;;;2.85;2.50;;;;;;;;;;10344071;28;20046;-63
2023/11/29 12:46:39;;;;;;;4.20;3.15;;;;;;;;;;10348460;28;20053;-62
2023/11/29 12:51:40;;;;;;;3.95;2.67;;;;;;;;;;10367173;28;20504;-63
2023/11/29 12:56:41;;;;;;;5.20;2.65;;;;;;;;;;10361571;28;20041;-64
2023/11/29 13:01:42;;;;;;;5.40;2.72;;;;;;;;;;10354723;28;20565;-62
2023/11/29 13:06:43;;;;;;;4.22;2.55;;;;;;;;;;10341767;28;20038;-62
2023/11/29 13:11:43;;;;;;;4.65;2.78;;;;;;;;;;10340111;28;20033;-62
2023/11/29 13:16:44;;;;;;;4.43;2.78;;;;;;;;;;10337811;28;20040;-63
2023/11/29 13:21:45;;;;;;;2.70;2.38;;;;;;;;;;10338637;28;20511;-63
2023/11/29 13:26:45;;;;;;;3.97;3.03;;;;;;;;;;10351699;28;20068;-63
2023/11/29 13:31:46;;;;;;;3.47;2.75;;;;;;;;;;10343511;28;20032;-63
2023/11/29 13:36:47;;;;;;;4.13;2.67;;;;;;;;;;10350349;28;20030;-62
2023/11/29 13:41:49;;;;;;;2.92;2.42;;;;;;;;;;10359265;28;20026;-62
2023/11/29 13:46:49;;;;;;;5.80;2.70;;;;;;;;;;10345825;28;20046;-63
2023/11/29 13:51:50;;;;;;;2.65;2.40;;;;;;;;;;10338411;28;20402;-63
2023/11/29 13:56:51;;;;;;;5.00;2.70;;;;;;;;;;10346523;28;20243;-63
2023/11/29 14:01:51;;;;;;;4.03;2.50;;;;;;;;;;10360368;28;20166;-63
2023/11/29 14:06:54;;;;;;;2.78;2.25;;;;;;;;;;10352725;28;20030;-62
2023/11/29 14:11:56;;;;;;;4.88;2.53;;;;;;;;;;10344931;28;20038;-63
2023/11/29 14:16:57;;;;;;;2.47;2.03;;;;;;;;;;10356131;28;20048;-63
2023/11/29 14:21:58;;;;;;;4.88;2.72;;;;;;;;;;10357410;28;20030;-63
2023/11/29 14:26:59;;;;;;;3.05;2.30;;;;;;;;;;10352499;28;20033;-63
2023/11/29 14:31:59;;;;;;;6.80;2.63;;;;;;;;;;10352881;28;20030;-63
2023/11/29 14:37:00;;;;;;;5.00;2.40;;;;;;;;;;10339382;28;20026;-63
2023/11/29 14:42:01;;;;;;;3.60;1.92;;;;;;;;;;10331664;28;20030;-63
2023/11/29 14:47:02;;;;;;;2.50;2.30;;;;;;;;;;10358281;28;20026;-63
2023/11/29 14:52:02;;;;;;;3.70;2.65;;;;;;;;;;10333753;28;20120;-64
2023/11/29 14:57:03;;;;;;;5.40;2.50;;;;;;;;;;10333564;28;20152;-63
2023/11/29 15:02:04;;;;;;;10.18;2.70;;;;;;;;;;10342895;28;20156;-63
2023/11/29 15:07:05;;;;;;;4.50;2.33;;;;;;;;;;10364068;28;20139;-63
2023/11/29 15:12:06;;;;;;;2.67;2.33;;;;;;;;;;10370730;28;20022;-63
2023/11/29 15:17:06;;;;;;;3.30;2.17;;;;;;;;;;10344962;28;20038;-63
2023/11/29 15:22:07;;;;;;;2.20;2.00;;;;;;;;;;10363268;28;20030;-63
2023/11/29 15:27:08;;;;;;;2.80;2.08;;;;;;;;;;10360288;28;20042;-63
2023/11/29 15:32:09;;;;;;;2.42;2.08;;;;;;;;;;10370755;28;20038;-64
2023/11/29 15:37:10;;;;;;;8.35;2.22;;;;;;;;;;10362556;28;20261;-63
2023/11/29 15:42:10;;;;;;;4.05;2.30;;;;;;;;;;10370270;28;20257;-64
2023/11/29 15:47:11;;;;;;;3.70;2.30;;;;;;;;;;10357806;28;20026;-63
2023/11/29 15:52:15;;;;;;;4.10;2.35;;;;;;;;;;10344233;28;20042;-63
2023/11/29 15:57:16;;;;;;;3.80;2.40;;;;;;;;;;10332722;28;20062;-63
2023/11/29 16:02:16;;;;;;;3.25;2.50;;;;;;;;;;10345441;28;20517;-63
2023/11/29 16:07:17;;;;;;;11.10;2.30;;;;;;;;;;10331904;28;20026;-63
2023/11/29 16:12:18;;;;;;;3.33;2.08;;;;;;;;;;10344314;28;20214;-64
2023/11/29 16:17:18;;;;;;;3.88;2.22;;;;;;;;;;10331604;28;20085;-63
2023/11/29 16:22:20;;;;;;;2.75;2.17;;;;;;;;;;10352208;28;20026;-65
2023/11/29 16:27:25;;;;;;;3.05;2.30;;;;;;;;;;10336777;28;20072;-64
2023/11/29 16:32:26;;;;;;;2.35;2.13;;;;;;;;;;10344241;28;20452;-64
2023/11/29 16:37:26;;;;;;;4.18;2.67;;;;;;;;;;10345277;28;20038;-63
2023/11/29 16:42:27;;;;;;;4.30;2.40;;;;;;;;;;10333105;28;20030;-63
2023/11/29 16:47:28;;;;;;;4.55;2.92;;;;;;;;;;10345919;28;20026;-63
2023/11/29 16:52:28;;;;;;;4.05;2.40;;;;;;;;;;10348685;28;20096;-65
2023/11/29 16:57:29;;;;;;;5.00;2.22;;;;;;;;;;10355352;28;20030;-63
2023/11/29 17:02:30;;;;;;;11.82;2.85;;;;;;;;;;10332899;28;20030;-63
2023/11/29 17:07:31;;;;;;;4.13;2.63;;;;;;;;;;10336630;28;20034;-63
2023/11/29 17:12:32;;;;;;;2.95;2.47;;;;;;;;;;10344045;28;20037;-63
2023/11/29 17:17:32;;;;;;;4.35;2.15;;;;;;;;;;10351949;28;20088;-63
2023/11/29 17:22:33;;;;;;;3.88;2.20;;;;;;;;;;10356459;28;20076;-62
2023/11/29 17:27:34;;;;;;;6.03;2.33;;;;;;;;;;10361638;28;20265;-63
2023/11/29 17:32:34;;;;;;;3.70;2.28;;;;;;;;;;10356077;28;20488;-62
2023/11/29 17:37:35;;;;;;;3.08;2.05;;;;;;;;;;10351544;28;20496;-63
2023/11/29 17:42:36;;;;;;;6.07;2.22;;;;;;;;;;10349009;28;20038;-62
2023/11/29 17:47:36;;;;;;;5.20;2.15;;;;;;;;;;10360920;28;20516;-63
2023/11/29 17:52:37;;;;;;;6.03;2.08;;;;;;;;;;10363142;28;20061;-64
2023/11/29 17:57:40;;;;;;;4.40;2.50;;;;;;;;;;10351505;28;20046;-64
2023/11/29 18:02:41;;;;;;;3.63;3.03;;;;;;;;;;10361255;28;20022;-64
2023/11/29 18:07:41;;;;;;;4.38;2.75;;;;;;;;;;10360599;28;20026;-64
2023/11/29 18:12:42;;;;;;;5.97;2.40;;;;;;;;;;10359828;28;20030;-63
2023/11/29 18:17:43;;;;;;;3.55;2.70;;;;;;;;;;10347098;28;20034;-64
2023/11/29 18:22:44;;;;;;;4.32;2.60;;;;;;;;;;10357521;28;20304;-63
2023/11/29 18:27:44;;;;;;;6.18;3.03;;;;;;;;;;10342932;28;20244;-62
2023/11/29 18:32:50;;;;;;;3.53;2.45;;;;;;;;;;10355774;28;20038;-63
2023/11/29 18:37:50;;;;;;;3.45;2.42;;;;;;;;;;10363442;28;20476;-63
2023/11/29 18:42:51;;;;;;;7.80;2.63;;;;;;;;;;10358918;28;20034;-63
2023/11/29 18:47:52;;;;;;;6.15;2.40;;;;;;;;;;10364452;28;20026;-63
2023/11/29 18:52:54;;;;;;;2.75;2.17;;;;;;;;;;10364508;28;20088;-65
2023/11/29 18:57:55;;;;;;;4.43;2.60;;;;;;;;;;10361373;28;20026;-63
2023/11/29 19:02:56;;;;;;;8.10;2.85;;;;;;;;;;10361244;28;20058;-63
2023/11/29 19:07:57;;;;;;;2.83;2.20;;;;;;;;;;10346218;28;20037;-64
2023/11/29 19:12:57;;;;;;;4.05;2.15;;;;;;;;;;10362820;28;20030;-64
2023/11/29 19:17:58;;;;;;;5.22;2.45;;;;;;;;;;10356052;28;20086;-64
2023/11/29 19:22:59;;;;;;;4.40;2.63;;;;;;;;;;10359528;28;20033;-64
2023/11/29 19:27:59;;;;;;;4.38;2.90;;;;;;;;;;10363909;28;20029;-61
2023/11/29 19:33:00;;;;;;;18.73;4.47;;;;;;;;;;10364368;28;20029;-61
2023/11/29 19:38:01;;;;;;;12.05;4.20;;;;;;;;;;10348154;28;20551;-63
2023/11/29 19:43:01;;;;;;;7.32;3.40;;;;;;;;;;10353540;28;20810;-63
2023/11/29 19:48:02;;;;;;;7.90;4.15;;;;;;;;;;10357343;28;20440;-63
2023/11/29 19:53:03;;;;;;;9.48;3.78;;;;;;;;;;10355018;28;20378;-64
2023/11/29 19:58:03;;;;;;;10.23;3.63;;;;;;;;;;10361863;28;20045;-63
2023/11/29 20:03:04;;;;;;;8.90;3.88;;;;;;;;;;10359099;28;20034;-63
2023/11/29 20:08:08;;;;;;;9.10;3.78;;;;;;;;;;10355040;28;20097;-64
2023/11/29 20:13:09;;;;;;;8.38;3.95;;;;;;;;;;10351820;28;20155;-62
2023/11/29 20:18:09;;;;;;;6.95;3.55;;;;;;;;;;10351843;28;20096;-63
2023/11/29 20:23:10;;;;;;;13.77;3.70;;;;;;;;;;10361598;28;20030;-62
2023/11/29 20:28:11;;;;;;;9.18;3.95;;;;;;;;;;10358557;28;20034;-60
2023/11/29 20:33:12;;;;;;;6.07;3.40;;;;;;;;;;10339843;28;20092;-64
2023/11/29 20:38:12;;;;;;;17.85;3.85;;;;;;;;;;10334049;28;20061;-62
2023/11/29 20:43:14;;;;;;;13.02;3.78;;;;;;;;;;10356049;28;20106;-66
2023/11/29 20:48:15;;;;;;;10.05;3.47;;;;;;;;;;10351225;28;20061;-67
2023/11/29 20:53:16;;;;;;;10.75;3.28;;;;;;;;;;10365427;28;20049;-63
2023/11/29 20:58:19;;;;;;;8.20;3.25;;;;;;;;;;10364748;28;20104;-64
2023/11/29 21:03:20;;;;;;;8.73;3.35;;;;;;;;;;10358496;28;20401;-65
2023/11/29 21:08:20;;;;;;;7.70;3.28;;;;;;;;;;10348272;28;20046;-63
2023/11/29 21:13:23;;;;;;;9.80;3.38;;;;;;;;;;10353003;28;20389;-63
2023/11/29 21:18:24;;;;;;;8.65;3.72;;;;;;;;;;10366212;28;20034;-64
2023/11/29 21:23:24;;;;;;;12.02;3.60;;;;;;;;;;10364370;28;20401;-63
2023/11/29 21:28:25;;;;;;;7.55;3.55;;;;;;;;;;10372486;28;20038;-64
2023/11/29 21:33:25;;;;;;;7.18;2.72;;;;;;;;;;10362215;28;20033;-64
2023/11/29 21:38:26;;;;;;;8.20;3.58;;;;;;;;;;10364551;28;20045;-63
2023/11/29 21:43:28;;;;;;;5.03;3.03;;;;;;;;;;10352738;28;20315;-63
2023/11/29 21:48:29;;;;;;;6.75;3.83;;;;;;;;;;10363649;28;20040;-65
2023/11/29 21:53:29;;;;;;;8.00;3.60;;;;;;;;;;10354112;28;20120;-67
2023/11/29 21:58:31;;;;;;;5.00;2.95;;;;;;;;;;10363856;28;20049;-66
2023/11/29 22:03:33;;;;;;;10.35;3.22;;;;;;;;;;10356308;28;20057;-67
2023/11/29 22:08:33;;;;;;;7.63;3.55;;;;;;;;;;10337515;28;20062;-68
2023/11/29 22:13:37;;;;;;;7.75;2.70;;;;;;;;;;10340024;28;20045;-63
2023/11/29 22:18:38;;;;;;;4.18;2.72;;;;;;;;;;10358468;28;20469;-66
2023/11/29 22:23:38;;;;;;;3.80;2.65;;;;;;;;;;10348192;28;20060;-67
2023/11/29 22:28:39;;;;;;;5.53;2.72;;;;;;;;;;10348390;28;20189;-64
2023/11/29 22:33:39;;;;;;;4.57;2.75;;;;;;;;;;10342362;28;20029;-63
2023/11/29 22:38:40;;;;;;;5.80;3.15;;;;;;;;;;10355640;28;20088;-64
2023/11/29 22:43:41;;;;;;;5.40;3.25;;;;;;;;;;10346817;28;20037;-63
2023/11/29 22:48:41;;;;;;;5.20;3.05;;;;;;;;;;10351549;28;20033;-63
2023/11/29 22:53:43;;;;;;;7.65;2.83;;;;;;;;;;10340809;28;20042;-64
2023/11/29 22:58:44;;;;;;;14.27;2.92;;;;;;;;;;10335933;28;20025;-64
2023/11/29 23:03:44;;;;;;;5.63;3.28;;;;;;;;;;10347664;28;20033;-63
2023/11/29 23:08:45;;;;;;;5.60;3.10;;;;;;;;;;10342155;28;20038;-63
2023/11/29 23:13:46;;;;;;;5.88;3.30;;;;;;;;;;10331876;28;20026;-63
2023/11/29 23:18:47;;;;;;;5.40;2.95;;;;;;;;;;10329325;28;20072;-63
2023/11/29 23:23:48;;;;;;;5.32;3.05;;;;;;;;;;10337421;28;20465;-64
2023/11/29 23:28:48;;;;;;;6.22;2.55;;;;;;;;;;10350931;28;20026;-66
2023/11/29 23:33:49;;;;;;;4.70;2.80;;;;;;;;;;10344519;28;20039;-64
2023/11/29 23:38:49;;;;;;;11.10;3.15;;;;;;;;;;10338838;28;20017;-64
2023/11/29 23:43:50;;;;;;;7.82;2.65;;;;;;;;;;10341549;28;20025;-64
2023/11/29 23:48:51;;;;;;;4.93;2.75;;;;;;;;;;10347263;28;20037;-64
2023/11/29 23:53:51;;;;;;;7.93;2.83;;;;;;;;;;10336942;28;20050;-64
2023/11/29 23:58:52;;;;;;;6.65;3.10;;;;;;;;;;10344592;28;20085;-64
